Time;durP1;ratioP1;P1;durP2;ratioP2;P2;SDS_P1;SDS_P2;PMS_P1;PMS_P2;Temp;Humidity;BMP_temperature;BMP_pressure;BME280_temperature;BME280_humidity;BME280_pressure;Samples;Min_cycle;Max_cycle;Signal;HPM_P1;HPM_P2
2022/12/25 00:01:07;;;;;;;24.77;11.23;;;;;;;4.11;100.00;101182.88;7399178;19;20041;-73
2022/12/25 00:03:35;;;;;;;24.55;11.70;;;;;;;4.08;100.00;101175.91;7399665;19;20085;-72
2022/12/25 00:06:07;;;;;;;20.23;10.50;;;;;;;4.05;100.00;101186.25;7398463;19;20086;-72
2022/12/25 00:08:36;;;;;;;21.65;10.20;;;;;;;4.03;100.00;101190.56;7397804;19;20474;-73
2022/12/25 00:11:08;;;;;;;23.88;11.18;;;;;;;4.00;100.00;101187.91;7399287;19;20426;-73
2022/12/25 00:13:36;;;;;;;27.30;11.27;;;;;;;3.98;100.00;101196.53;7400077;19;20073;-74
2022/12/25 00:16:08;;;;;;;29.52;11.10;;;;;;;3.95;100.00;101194.78;7398508;19;20383;-74
2022/12/25 00:18:36;;;;;;;26.80;10.82;;;;;;;3.92;100.00;101197.34;7399161;19;20015;-73
2022/12/25 00:21:09;;;;;;;24.83;10.82;;;;;;;3.89;100.00;101194.69;7398803;19;20422;-70
2022/12/25 00:23:37;;;;;;;28.73;12.73;;;;;;;3.89;100.00;101192.09;7399886;19;20078;-70
2022/12/25 00:26:07;;;;;;;29.60;11.65;;;;;;;3.86;100.00;101194.66;7398579;19;20018;-70
2022/12/25 00:28:36;;;;;;;26.98;11.93;;;;;;;3.83;100.00;101194.63;7399254;19;20039;-71
2022/12/25 00:31:08;;;;;;;26.50;11.52;;;;;;;3.80;100.00;101192.00;7399050;19;20031;-70
2022/12/25 00:33:37;;;;;;;23.48;11.50;;;;;;;3.78;100.00;101199.75;7398909;19;20023;-70
2022/12/25 00:36:10;;;;;;;27.15;11.27;;;;;;;3.73;100.00;101193.63;7397460;19;20015;-70
2022/12/25 00:38:40;;;;;;;26.27;11.55;;;;;;;3.73;100.00;101196.22;7399268;19;20031;-70
2022/12/25 00:41:09;;;;;;;24.40;11.18;;;;;;;3.70;100.00;101202.25;7396637;19;20431;-70
2022/12/25 00:43:40;;;;;;;25.88;11.50;;;;;;;3.67;100.00;101212.56;7398924;19;20015;-70
2022/12/25 00:46:09;;;;;;;29.45;11.82;;;;;;;3.65;100.00;101206.50;7397242;19;20018;-71
2022/12/25 00:48:38;;;;;;;23.02;12.05;;;;;;;3.64;100.00;101215.16;7398536;19;20074;-71
2022/12/25 00:51:12;;;;;;;25.67;11.35;;;;;;;3.63;100.00;101209.91;7398407;19;20037;-71
2022/12/25 00:53:40;;;;;;;;;;;;;;;3.62;100.00;101208.19;7400047;19;20022;-71
2022/12/25 00:56:09;;;;;;;22.48;11.45;;;;;;;3.62;100.00;101211.63;7397376;19;19966;-70
2022/12/25 00:58:37;;;;;;;34.53;13.27;;;;;;;3.61;100.00;101209.88;7398257;19;20090;-70
2022/12/25 01:01:06;;;;;;;27.73;12.15;;;;;;;3.60;100.00;101200.34;7396121;19;20078;-71
2022/12/25 01:03:35;;;;;;;24.05;12.02;;;;;;;3.62;100.00;101195.22;7399536;19;20086;-71
2022/12/25 01:06:06;;;;;;;23.42;12.50;;;;;;;3.62;100.00;101205.59;7397205;19;20015;-72
2022/12/25 01:10:20;;;;;;;31.73;11.95;;;;;;;3.62;100.00;101205.59;7396420;19;20014;-72
2022/12/25 01:11:25;;;;;;;35.10;12.20;;;;;;;3.61;100.00;101217.69;7397426;19;20014;-72
2022/12/25 01:13:54;;;;;;;34.58;14.18;;;;;;;3.59;100.00;101209.88;7397645;19;20015;-71
2022/12/25 01:16:23;;;;;;;36.38;13.63;;;;;;;3.60;100.00;101221.13;7396825;19;20015;-71
2022/12/25 01:18:51;;;;;;;35.22;13.32;;;;;;;3.60;100.00;101228.91;7397714;19;20028;-71
2022/12/25 01:21:22;;;;;;;28.88;14.57;;;;;;;3.57;100.00;101232.31;7397160;19;20018;-71
2022/12/25 01:23:54;;;;;;;34.30;13.73;;;;;;;3.55;100.00;101230.56;7397894;19;20039;-72
2022/12/25 01:26:26;;;;;;;36.95;14.93;;;;;;;3.57;100.00;101247.88;7396523;19;20018;-71
2022/12/25 01:28:55;;;;;;;30.40;14.05;;;;;;;3.55;100.00;101248.72;7397764;19;20065;-70
2022/12/25 01:31:25;;;;;;;30.92;14.55;;;;;;;3.55;100.00;101248.72;7397089;19;20018;-71
2022/12/25 01:33:54;;;;;;;39.22;15.07;;;;;;;3.53;100.00;101255.63;7397065;19;20082;-71
2022/12/25 01:36:25;;;;;;;30.50;14.27;;;;;;;3.52;100.00;101252.13;7395755;19;20025;-70
2022/12/25 01:38:56;;;;;;;26.42;13.23;;;;;;;3.51;100.00;101252.97;7395694;19;20548;-72
2022/12/25 01:41:26;;;;;;;32.75;13.73;;;;;;;3.49;100.00;101252.09;7396134;19;20381;-71
2022/12/25 01:44:03;;;;;;;30.42;13.70;;;;;;;3.47;100.00;101253.78;7394580;19;20498;-71
2022/12/25 01:46:33;;;;;;;29.83;13.00;;;;;;;3.48;100.00;101265.06;7395908;19;20047;-72
2022/12/25 01:49:11;;;;;;;34.30;12.80;;;;;;;3.47;100.00;101265.91;7396565;19;20073;-71
2022/12/25 01:51:43;;;;;;;33.70;13.02;;;;;;;3.46;100.00;101277.13;7396905;19;20026;-72
2022/12/25 01:54:18;;;;;;;31.38;12.90;;;;;;;3.44;100.00;101277.09;7394896;19;20082;-71
2022/12/25 01:56:49;;;;;;;46.35;14.77;;;;;;;3.42;100.00;101273.59;7394838;19;20584;-72
2022/12/25 01:59:21;;;;;;;32.88;13.52;;;;;;;3.40;100.00;101268.41;7395906;19;20019;-72
2022/12/25 02:01:49;;;;;;;34.22;13.90;;;;;;;3.39;100.00;101276.16;7395254;19;20429;-72
2022/12/25 02:04:37;;;;;;;34.10;14.93;;;;;;;3.37;100.00;101273.50;7396077;19;20018;-72
2022/12/25 02:07:06;;;;;;;35.40;14.82;;;;;;;3.36;100.00;101273.50;7394585;19;20015;-71
2022/12/25 02:09:39;;;;;;;28.73;13.68;;;;;;;3.34;100.00;101281.25;7394151;19;20423;-71
2022/12/25 02:12:09;;;;;;;29.98;12.80;;;;;;;3.33;100.00;101291.63;7396337;19;20066;-72
2022/12/25 02:14:39;;;;;;;28.45;12.90;;;;;;;3.31;100.00;101296.78;7395113;19;20022;-69
2022/12/25 02:17:12;;;;;;;29.25;12.32;;;;;;;3.31;100.00;101293.31;7394255;19;20078;-69
2022/12/25 02:20:04;;;;;;;29.05;11.77;;;;;;;3.29;100.00;101285.50;7395501;19;20536;-69
2022/12/25 02:22:46;;;;;;;29.17;11.80;;;;;;;3.28;100.00;101294.13;7394369;19;20028;-69
2022/12/25 02:25:34;;;;;;;31.70;13.10;;;;;;;3.28;100.00;101295.84;7393443;19;20090;-69
2022/12/25 02:28:14;;;;;;;29.92;12.25;;;;;;;3.25;100.00;101287.16;7395179;19;20391;-69
2022/12/25 02:30:48;;;;;;;34.13;12.00;;;;;;;3.25;100.00;101286.31;7395490;19;20431;-69
2022/12/25 02:36:08;;;;;;;27.63;12.38;;;;;;;3.22;100.00;101283.63;7394578;19;20014;-69
2022/12/25 02:39:56;;;;;;;35.00;11.98;;;;;;;3.21;100.00;101279.28;7395558;19;20087;-69
2022/12/25 02:41:29;;;;;;;29.75;13.20;;;;;;;3.19;100.00;101273.22;7394277;19;20011;-69
2022/12/25 03:11:29;;;;;;;27.73;11.90;;;;;;;2.98;100.00;101261.63;7396342;19;20024;-69
2022/12/25 03:11:41;;;;;;;29.38;11.48;;;;;;;2.95;100.00;101258.97;7401295;19;20015;-69
2022/12/25 03:17:01;;;;;;;32.80;13.65;;;;;;;2.88;100.00;101267.47;7397147;19;20086;-68
2022/12/25 03:27:43;;;;;;;34.55;12.95;;;;;;;2.73;100.00;101262.88;7401472;19;20446;-68
2022/12/25 03:33:05;;;;;;;31.58;12.98;;;;;;;2.68;100.00;101277.47;7401345;19;20019;-69
2022/12/25 03:35:43;;;;;;;30.42;12.80;;;;;;;2.63;100.00;101274.81;7400857;19;20022;-69
2022/12/25 04:38:33;;;;;;;32.05;12.63;;;;;;;1.93;100.00;101319.97;7399202;19;20006;-68
2022/12/25 04:41:03;;;;;;;34.95;13.40;;;;;;;1.91;100.00;101328.53;7399168;19;20073;-68
2022/12/25 04:43:31;;;;;;;33.60;12.63;;;;;;;1.87;100.00;101325.00;7396754;19;20077;-68
2022/12/25 04:46:02;;;;;;;31.08;12.07;;;;;;;1.85;100.00;101336.16;7397684;19;20086;-68
2022/12/25 04:48:33;;;;;;;25.33;10.60;;;;;;;1.81;100.00;101340.38;7399111;19;20090;-69
2022/12/25 04:51:15;;;;;;;32.83;11.70;;;;;;;1.75;100.00;101335.91;7398991;19;20028;-69
2022/12/25 04:53:47;;;;;;;25.10;12.27;;;;;;;1.72;100.00;101334.94;7398716;19;20021;-68
2022/12/25 04:56:16;;;;;;;25.52;10.73;;;;;;;1.68;100.00;101341.78;7396987;19;20019;-68
2022/12/25 04:58:45;;;;;;;21.10;11.30;;;;;;;1.65;100.00;101353.78;7398250;19;20029;-68
2022/12/25 05:01:15;;;;;;;21.60;11.15;;;;;;;1.57;100.00;101351.00;7395900;19;20472;-69
2022/12/25 05:03:43;;;;;;;21.67;11.55;;;;;;;1.55;100.00;101358.69;7396213;19;20032;-69
2022/12/25 05:06:12;;;;;;;27.85;11.95;;;;;;;1.53;100.00;101354.31;7397043;19;20089;-68
2022/12/25 05:08:41;;;;;;;28.23;11.27;;;;;;;1.51;100.00;101348.25;7395393;19;20010;-69
2022/12/25 05:11:14;;;;;;;51.58;12.48;;;;;;;1.50;100.00;101343.91;7397838;19;20077;-68
2022/12/25 05:13:43;;;;;;;30.83;11.82;;;;;;;1.48;100.00;101335.22;7398183;19;20010;-68
2022/12/25 05:16:14;;;;;;;38.92;12.70;;;;;;;1.50;100.00;101342.19;7396741;19;20019;-69
2022/12/25 05:18:43;;;;;;;34.85;13.40;;;;;;;1.49;100.00;101337.00;7398026;19;20086;-69
2022/12/25 05:21:13;;;;;;;29.13;13.50;;;;;;;1.50;100.00;101344.78;7397527;19;20023;-69
2022/12/25 05:23:47;;;;;;;45.83;17.30;;;;;;;1.51;100.00;101343.09;7395257;19;20019;-69
2022/12/25 05:26:20;;;;;;;47.80;16.92;;;;;;;1.51;100.00;101340.50;7396678;19;20026;-69
2022/12/25 05:28:48;;;;;;;35.72;15.65;;;;;;;1.51;100.00;101341.34;7397672;19;20017;-69
2022/12/25 05:31:17;;;;;;;39.03;15.50;;;;;;;1.52;100.00;101326.75;7395374;19;20074;-69
2022/12/25 05:33:46;;;;;;;39.88;15.95;;;;;;;1.54;100.00;101335.38;7397059;19;20037;-69
2022/12/25 05:36:14;;;;;;;40.70;14.65;;;;;;;1.53;100.00;101331.03;7395113;19;20039;-69
2022/12/25 05:38:43;;;;;;;43.58;15.07;;;;;;;1.56;100.00;101333.72;7396621;19;20377;-69
2022/12/25 05:41:11;;;;;;;42.90;13.65;;;;;;;1.55;100.00;101329.38;7396493;19;20497;-69
2022/12/25 05:43:42;;;;;;;41.10;14.02;;;;;;;1.56;100.00;101324.25;7394883;19;20021;-69
2022/12/25 05:46:12;;;;;;;48.50;12.82;;;;;;;1.58;100.00;101326.84;7395714;19;20420;-70
2022/12/25 05:48:40;;;;;;;53.05;13.52;;;;;;;1.59;100.00;101315.69;7397096;19;20028;-70
2022/12/25 05:51:11;;;;;;;39.17;13.10;;;;;;;1.59;100.00;101316.56;7396581;19;20024;-69
2022/12/25 05:53:41;;;;;;;63.88;13.95;;;;;;;1.59;100.00;101311.41;7396758;19;20066;-69
2022/12/25 05:56:10;;;;;;;41.17;12.77;;;;;;;1.62;100.00;101318.38;7395598;19;20019;-69
2022/12/25 05:58:42;;;;;;;38.97;13.70;;;;;;;1.63;100.00;101314.91;7396473;19;20015;-69
2022/12/25 06:01:16;;;;;;;39.38;13.48;;;;;;;1.64;100.00;101321.84;7396336;19;20416;-70
2022/12/25 06:03:44;;;;;;;35.13;12.77;;;;;;;1.66;100.00;101321.91;7394941;19;20021;-69
2022/12/25 06:06:13;;;;;;;32.10;14.02;;;;;;;1.67;100.00;101327.09;7394984;19;20438;-69
2022/12/25 06:08:41;;;;;;;47.78;15.18;;;;;;;1.68;100.00;101322.78;7395335;19;20078;-69
2022/12/25 06:11:11;;;;;;;42.90;14.70;;;;;;;1.69;100.00;101327.13;7395620;19;20015;-69
2022/12/25 06:13:39;;;;;;;37.67;16.05;;;;;;;1.70;100.00;101321.13;7395951;19;20098;-69
2022/12/25 06:16:13;;;;;;;55.55;16.38;;;;;;;1.69;100.00;101314.19;7394480;19;20029;-69
2022/12/25 06:18:43;;;;;;;70.80;19.08;;;;;;;1.68;100.00;101317.63;7396444;19;20085;-68
2022/12/25 06:21:13;;;;;;;45.75;18.85;;;;;;;1.67;100.00;101316.75;7395327;19;20014;-69
2022/12/25 06:23:42;;;;;;;44.25;17.58;;;;;;;1.66;100.00;101317.59;7394365;19;20092;-69
2022/12/25 06:26:12;;;;;;;45.05;18.65;;;;;;;1.64;100.00;101311.50;7394162;19;20541;-68
2022/12/25 06:28:42;;;;;;;37.53;16.30;;;;;;;1.63;100.00;101320.09;7395847;19;20014;-69
2022/12/25 06:31:16;;;;;;;35.90;15.90;;;;;;;1.61;100.00;101316.59;7395554;19;20081;-69
2022/12/25 06:33:45;;;;;;;30.90;13.98;;;;;;;1.57;100.00;101315.66;7395335;19;20021;-68
2022/12/25 06:36:16;;;;;;;25.00;13.38;;;;;;;1.56;100.00;101319.06;7394304;19;20081;-69
2022/12/25 06:38:44;;;;;;;26.83;12.90;;;;;;;1.55;100.00;101316.44;7394383;19;20070;-69
2022/12/25 06:41:21;;;;;;;27.90;12.80;;;;;;;1.52;100.00;101321.56;7403095;19;20025;-69
2022/12/25 06:43:51;;;;;;;28.45;12.50;;;;;;;1.48;100.00;101330.06;7400912;19;20093;-69
2022/12/25 06:46:23;;;;;;;28.95;12.25;;;;;;;1.45;100.00;101331.75;7401852;19;20035;-69
2022/12/25 06:48:52;;;;;;;26.13;12.25;;;;;;;1.41;100.00;101326.44;7402211;19;20022;-69
2022/12/25 06:51:22;;;;;;;26.35;14.88;;;;;;;1.40;100.00;101328.19;7402736;19;20019;-70
2022/12/25 06:53:52;;;;;;;32.35;14.05;;;;;;;1.36;100.00;101322.88;7402125;19;20078;-70
2022/12/25 06:56:25;;;;;;;55.20;23.77;;;;;;;1.34;100.00;101329.72;7400736;19;20025;-69
2022/12/25 06:58:56;;;;;;;32.95;16.73;;;;;;;1.31;100.00;101338.25;7402405;19;20464;-68
2022/12/25 07:01:30;;;;;;;26.90;14.98;;;;;;;1.27;100.00;101339.03;7402354;19;20011;-69
2022/12/25 07:04:01;;;;;;;26.65;16.33;;;;;;;1.25;100.00;101351.91;7399730;19;20391;-69
2022/12/25 07:06:30;;;;;;;30.50;18.10;;;;;;;1.21;100.00;101356.97;7400414;19;20089;-68
2022/12/25 07:08:58;;;;;;;34.10;16.67;;;;;;;1.18;100.00;101346.56;7400187;19;20021;-69
2022/12/25 07:11:27;;;;;;;28.25;15.25;;;;;;;1.16;100.00;101351.66;7401881;19;20018;-69
2022/12/25 07:13:56;;;;;;;24.58;14.45;;;;;;;1.14;100.00;101350.75;7399059;19;20074;-69
2022/12/25 07:16:27;;;;;;;28.02;15.88;;;;;;;1.12;100.00;101352.41;7399750;19;20549;-69
2022/12/25 07:18:55;;;;;;;50.20;21.45;;;;;;;1.09;100.00;101353.22;7401646;19;20442;-69
2022/12/25 07:21:24;;;;;;;48.95;24.75;;;;;;;1.08;100.00;101356.63;7402002;19;20014;-69
2022/12/25 07:23:52;;;;;;;41.15;23.77;;;;;;;1.07;100.00;101359.19;7399682;19;20022;-69
2022/12/25 07:26:21;;;;;;;43.72;19.65;;;;;;;1.07;100.00;101372.09;7399361;19;20474;-68
2022/12/25 07:28:49;;;;;;;40.05;18.17;;;;;;;1.05;100.00;101372.06;7401290;19;20022;-68
2022/12/25 07:31:18;;;;;;;34.92;18.73;;;;;;;1.05;100.00;101372.06;7400826;19;20516;-69
2022/12/25 07:33:50;;;;;;;40.70;18.30;;;;;;;1.05;100.00;101360.84;7401041;19;20086;-69
2022/12/25 07:36:18;;;;;;;37.67;18.23;;;;;;;1.04;100.00;101354.81;7399774;19;20066;-69
2022/12/25 07:38:50;;;;;;;37.35;18.02;;;;;;;1.05;100.00;101346.22;7401071;19;20015;-69
2022/12/25 07:41:19;;;;;;;36.28;16.25;;;;;;;1.06;100.00;101342.81;7398322;19;20094;-69
2022/12/25 07:43:51;;;;;;;43.00;20.33;;;;;;;1.07;100.00;101343.66;7398889;19;20074;-68
2022/12/25 07:46:20;;;;;;;42.08;20.08;;;;;;;1.08;100.00;101345.44;7397690;19;20086;-68
2022/12/25 07:48:51;;;;;;;39.45;18.52;;;;;;;1.08;100.00;101346.28;7400535;19;20017;-68
2022/12/25 07:51:19;;;;;;;39.45;18.48;;;;;;;1.08;100.00;101359.22;7400056;19;20481;-69
2022/12/25 07:53:48;;;;;;;49.08;22.35;;;;;;;1.07;100.00;101347.13;7400562;19;20035;-69
2022/12/25 07:56:18;;;;;;;45.67;21.33;;;;;;;1.07;100.00;101339.38;7397456;19;20518;-69
2022/12/25 07:58:47;;;;;;;41.70;20.23;;;;;;;1.09;100.00;101347.19;7397745;19;20015;-69
2022/12/25 08:01:18;;;;;;;47.08;19.83;;;;;;;1.10;100.00;101339.47;7397713;19;20035;-69
2022/12/25 08:03:54;;;;;;;47.95;18.80;;;;;;;1.11;100.00;101338.63;7398797;19;20018;-69
2022/12/25 08:06:25;;;;;;;41.65;18.70;;;;;;;1.12;100.00;101321.41;7398841;19;20018;-69
2022/12/25 08:08:54;;;;;;;33.28;16.80;;;;;;;1.15;100.00;101324.09;7397484;19;20044;-68
2022/12/25 08:11:22;;;;;;;39.80;17.38;;;;;;;1.16;100.00;101325.81;7400603;19;20074;-70
2022/12/25 08:13:51;;;;;;;43.42;17.60;;;;;;;1.20;100.00;101334.53;7400113;19;20093;-68
2022/12/25 08:16:19;;;;;;;44.50;17.63;;;;;;;1.21;100.00;101337.13;7398435;19;20074;-69
2022/12/25 08:18:48;;;;;;;39.10;19.48;;;;;;;1.24;100.00;101333.75;7399820;19;20067;-69
2022/12/25 08:21:19;;;;;;;41.13;18.40;;;;;;;1.25;100.00;101312.25;7399172;19;20085;-69
2022/12/25 08:23:48;;;;;;;42.70;18.25;;;;;;;1.33;100.00;101327.94;7398398;19;20014;-69
2022/12/25 08:26:20;;;;;;;43.30;19.17;;;;;;;1.36;100.00;101326.31;7398119;19;20078;-68
2022/12/25 08:28:49;;;;;;;49.05;21.08;;;;;;;1.41;100.00;101324.72;7398916;19;20014;-68
2022/12/25 08:31:20;;;;;;;44.20;19.08;;;;;;;1.45;100.00;101326.59;7399090;19;20015;-68
2022/12/25 08:33:49;;;;;;;46.38;19.70;;;;;;;1.49;100.00;101330.09;7398726;19;20021;-69
2022/12/25 08:36:21;;;;;;;51.28;21.40;;;;;;;1.53;100.00;101337.13;7397283;19;20094;-68
2022/12/25 08:38:50;;;;;;;58.40;26.25;;;;;;;1.57;100.00;101333.75;7399168;19;20186;-68
2022/12/25 08:41:19;;;;;;;70.88;34.85;;;;;;;1.60;100.00;101338.13;7398796;19;20082;-69
2022/12/25 08:43:48;;;;;;;49.70;24.00;;;;;;;1.63;100.00;101341.66;7397706;19;20022;-69
2022/12/25 08:46:16;;;;;;;51.05;20.73;;;;;;;1.67;100.00;101339.16;7396369;19;20086;-68
2022/12/25 08:48:46;;;;;;;48.03;21.98;;;;;;;1.70;100.00;101339.25;7396013;19;20015;-68
2022/12/25 08:51:16;;;;;;;51.55;23.88;;;;;;;1.73;100.00;101331.53;7398621;19;20014;-69
2022/12/25 08:53:49;;;;;;;58.65;24.77;;;;;;;1.74;100.00;101325.53;7397981;19;20010;-69
2022/12/25 08:56:18;;;;;;;52.85;25.70;;;;;;;1.77;100.00;101312.69;7397403;19;20098;-69
2022/12/25 08:58:47;;;;;;;47.30;25.17;;;;;;;1.79;100.00;101318.75;7396273;19;20089;-69
2022/12/25 09:01:16;;;;;;;53.78;25.70;;;;;;;1.82;100.00;101302.41;7397200;19;20082;-69
2022/12/25 09:03:45;;;;;;;64.75;30.45;;;;;;;1.85;100.00;101312.84;7396224;19;20536;-70
2022/12/25 09:06:15;;;;;;;57.47;27.52;;;;;;;1.87;100.00;101308.56;7396503;19;20418;-69
2022/12/25 09:08:46;;;;;;;68.43;33.30;;;;;;;1.87;100.00;101306.88;7396835;19;20083;-68
2022/12/25 09:11:16;;;;;;;75.22;35.15;;;;;;;1.91;100.00;101302.66;7397445;19;20014;-68
2022/12/25 09:13:45;;;;;;;71.85;33.55;;;;;;;1.93;100.00;101295.78;7397681;19;20090;-69
2022/12/25 09:16:15;;;;;;;79.43;34.00;;;;;;;1.96;100.00;101301.03;7396175;19;20021;-69
2022/12/25 09:18:43;;;;;;;76.60;35.65;;;;;;;2.01;100.00;101304.59;7397225;19;20082;-70
2022/12/25 09:21:14;;;;;;;73.85;33.58;;;;;;;2.04;100.00;101296.91;7397321;19;20077;-69
2022/12/25 09:23:43;;;;;;;59.33;28.05;;;;;;;2.07;100.00;101285.72;7396574;19;20021;-68
2022/12/25 09:26:16;;;;;;;57.25;23.30;;;;;;;2.13;100.00;101290.19;7395939;19;20026;-68
2022/12/25 09:28:45;;;;;;;56.50;23.55;;;;;;;2.17;100.00;101282.50;7397452;19;20014;-69
2022/12/25 09:31:14;;;;;;;50.72;22.50;;;;;;;2.22;100.00;101283.47;7396268;19;20112;-71
2022/12/25 09:33:42;;;;;;;60.80;24.48;;;;;;;2.31;100.00;101263.81;7396377;19;20507;-70
2022/12/25 09:36:12;;;;;;;65.53;26.25;;;;;;;2.35;100.00;101258.72;7396087;19;20194;-70
2022/12/25 09:38:40;;;;;;;63.75;27.52;;;;;;;2.41;100.00;101257.97;7396837;19;20029;-70
2022/12/25 09:41:19;;;;;;;63.03;27.50;;;;;;;2.48;100.00;101257.25;7396238;19;20077;-69
2022/12/25 09:43:59;;;;;;;69.78;28.27;;;;;;;2.55;100.00;101258.22;7394597;19;20086;-69
2022/12/25 09:46:30;;;;;;;68.78;27.15;;;;;;;2.64;100.00;101260.13;7395762;19;20031;-70
2022/12/25 09:49:06;;;;;;;202.98;94.78;;;;;;;2.72;100.00;101263.75;7394751;19;20079;-68
2022/12/25 09:51:39;;;;;;;166.30;73.43;;;;;;;2.81;100.00;101260.47;7396560;19;20074;-69
2022/12/25 09:54:15;;;;;;;95.70;41.75;;;;;;;2.91;100.00;101258.06;7396364;19;20081;-69
2022/12/25 09:56:47;;;;;;;75.22;30.27;;;;;;;3.00;100.00;101257.34;7394363;19;20450;-70
2022/12/25 09:59:26;;;;;;;58.13;25.70;;;;;;;3.10;100.00;101263.56;7395378;19;20074;-68
2022/12/25 10:02:03;;;;;;;78.07;26.55;;;;;;;3.20;100.00;101275.84;7396491;19;20014;-69
2022/12/25 10:04:58;;;;;;;62.20;23.80;;;;;;;3.32;100.00;101285.53;7395851;19;20018;-70
2022/12/25 10:07:37;;;;;;;65.10;27.90;;;;;;;3.47;100.00;101294.44;7393432;19;20541;-69
2022/12/25 10:10:22;;;;;;;82.68;31.88;;;;;;;3.61;100.00;101279.94;7393759;19;20509;-70
2022/12/25 10:13:03;;;;;;;67.18;28.75;;;;;;;3.77;100.00;101273.28;7394853;19;20083;-70
2022/12/25 10:15:37;;;;;;;64.43;26.38;;;;;;;3.92;100.00;101260.50;7393006;19;20536;-68
2022/12/25 10:18:11;;;;;;;;;;;;;;;4.07;100.00;101261.59;7396486;19;20037;-70
2022/12/25 10:20:47;;;;;;;50.78;20.38;;;;;;;4.20;100.00;101254.84;7394928;19;20311;-69
2022/12/25 10:23:20;;;;;;;54.65;22.77;;;;;;;4.36;100.00;101240.28;7395127;19;20081;-70
2022/12/25 10:25:50;;;;;;;54.65;21.55;;;;;;;4.49;100.00;101231.78;7395174;19;20410;-69
2022/12/25 10:28:28;;;;;;;59.38;26.67;;;;;;;4.65;100.00;101219.84;7394673;19;20545;-69
2022/12/25 10:31:00;;;;;;;53.78;22.63;;;;;;;4.78;100.00;101223.44;7393846;19;20025;-70
2022/12/25 10:33:29;;;;;;;56.30;21.90;;;;;;;4.92;100.00;101233.97;7392626;19;20496;-68
2022/12/25 10:35:58;;;;;;;69.53;34.13;;;;;;;5.04;100.00;101234.06;7393373;19;20437;-70
2022/12/25 10:38:27;;;;;;;59.35;27.52;;;;;;;5.17;100.00;101235.06;7394222;19;20495;-70
2022/12/25 10:41:17;;;;;;;43.22;17.20;;;;;;;5.30;100.00;101249.03;7394612;19;20010;-69
2022/12/25 10:43:51;;;;;;;50.60;21.85;;;;;;;5.41;100.00;101238.72;7393899;19;20036;-69
2022/12/25 10:46:21;;;;;;;43.15;17.02;;;;;;;5.52;100.00;101246.59;7392886;19;20367;-69
2022/12/25 10:48:53;;;;;;;46.45;16.15;;;;;;;5.61;100.00;101251.88;7392941;19;20074;-70
2022/12/25 10:51:30;;;;;;;42.97;16.77;;;;;;;5.71;100.00;101248.47;7392648;19;20019;-69
2022/12/25 10:53:59;;;;;;;36.28;15.30;;;;;;;5.84;100.00;101252.00;7394965;19;20074;-69
2022/12/25 10:56:27;;;;;;;37.15;14.88;;;;;;;5.95;100.00;101230.34;7392923;19;20485;-70
2022/12/25 10:59:08;;;;;;;34.25;13.90;;;;;;;6.05;100.00;101221.75;7394198;19;20367;-68
2022/12/25 11:01:37;;;;;;;30.73;14.07;;;;;;;6.14;100.00;101224.41;7393871;19;20470;-69
2022/12/25 11:04:05;;;;;;;29.90;12.88;;;;;;;6.23;100.00;101210.56;7393108;19;20499;-68
2022/12/25 11:06:34;;;;;;;29.75;12.70;;;;;;;6.29;100.00;101200.16;7393238;19;20157;-69
2022/12/25 11:09:04;;;;;;;33.40;12.00;;;;;;;6.35;100.00;101200.16;7393646;19;20354;-69
2022/12/25 11:11:32;;;;;;;27.02;10.68;;;;;;;6.44;100.00;101211.50;7394545;19;20066;-68
2022/12/25 11:14:04;;;;;;;25.83;10.18;;;;;;;6.49;100.00;101213.22;7393922;19;20024;-70
2022/12/25 11:16:39;;;;;;;31.15;11.25;;;;;;;6.57;100.00;101215.00;7392227;19;20018;-69
2022/12/25 11:19:26;;;;;;;27.88;9.57;;;;;;;6.63;100.00;101205.44;7392100;19;20132;-69
2022/12/25 11:21:56;;;;;;;23.63;9.07;;;;;;;6.70;100.00;101211.56;7394103;19;20078;-69
2022/12/25 11:24:28;;;;;;;24.65;8.32;;;;;;;6.74;100.00;101212.44;7393263;19;20094;-70
2022/12/25 11:26:58;;;;;;;20.63;8.82;;;;;;;6.78;100.00;101216.78;7399158;19;20078;-70
2022/12/25 11:29:32;;;;;;;25.85;8.20;;;;;;;6.81;100.00;101209.84;7398650;19;20014;-69
2022/12/25 11:32:05;;;;;;;19.30;7.75;;;;;;;6.86;100.00;101196.78;7400798;19;20510;-70
2022/12/25 11:34:40;;;;;;;21.42;7.28;;;;;;;6.91;100.00;101195.03;7401082;19;20372;-68
2022/12/25 11:37:15;;;;;;;15.15;7.55;;;;;;;6.93;100.00;101188.09;7398628;19;20082;-70
2022/12/25 11:39:44;;;;;;;18.80;6.75;;;;;;;6.96;100.00;101189.84;7401210;19;20015;-69
2022/12/25 11:42:19;;;;;;;20.83;7.60;;;;;;;6.97;100.00;101178.53;7398099;19;20086;-69
2022/12/25 11:44:56;;;;;;;13.45;5.75;;;;;;;6.99;100.00;101163.75;7399917;19;20015;-69
2022/12/25 11:47:34;;;;;;;12.25;5.88;;;;;;;6.99;100.00;101151.56;7398107;19;20086;-69
2022/12/25 11:50:08;;;;;;;10.63;5.45;;;;;;;7.04;100.00;101141.16;7401352;19;20364;-70
2022/12/25 11:52:40;;;;;;;13.38;5.88;;;;;;;7.01;100.00;101110.72;7401167;19;20028;-70
2022/12/25 11:55:18;;;;;;;13.88;5.25;;;;;;;7.03;100.00;101109.81;7400335;19;20025;-70
2022/12/25 11:57:51;;;;;;;14.80;5.18;;;;;;;7.06;100.00;101110.69;7399829;19;20014;-69
2022/12/25 12:00:21;;;;;;;15.98;5.57;;;;;;;7.06;100.00;101102.84;7400553;19;20021;-70
2022/12/25 12:03:00;;;;;;;13.88;5.00;;;;;;;7.07;100.00;101103.75;7397708;19;20073;-70
2022/12/25 12:05:34;;;;;;;11.48;5.07;;;;;;;7.08;100.00;101105.50;7398464;19;20022;-69
2022/12/25 12:08:04;;;;;;;12.20;4.43;;;;;;;7.08;100.00;101097.66;7399559;19;20015;-70
2022/12/25 12:10:43;;;;;;;12.77;5.38;;;;;;;7.06;100.00;101088.97;7397379;19;20013;-69
2022/12/25 12:13:26;;;;;;;14.38;5.00;;;;;;;7.07;100.00;101095.91;7399956;19;20086;-70
2022/12/25 12:15:56;;;;;;;14.65;4.20;;;;;;;7.06;100.00;101096.78;7398745;19;20019;-72
2022/12/25 12:18:32;;;;;;;11.40;4.30;;;;;;;7.03;100.00;101089.84;7397060;19;20021;-70
2022/12/25 12:21:03;;;;;;;12.52;4.22;;;;;;;7.03;100.00;101084.63;7399337;19;20022;-70
2022/12/25 12:23:35;;;;;;;11.45;4.03;;;;;;;7.01;100.00;101087.22;7400075;19;20022;-69
2022/12/25 12:26:04;;;;;;;13.30;4.03;;;;;;;7.00;100.00;101082.00;7397615;19;20019;-69
2022/12/25 12:28:45;;;;;;;9.55;3.95;;;;;;;6.99;100.00;101083.75;7398957;19;20369;-69
2022/12/25 12:31:15;;;;;;;7.47;4.18;;;;;;;6.97;100.00;101068.97;7399755;19;20018;-71
2022/12/25 12:33:53;;;;;;;9.75;5.03;;;;;;;6.98;100.00;101074.19;7399026;19;20086;-71
2022/12/25 12:36:25;;;;;;;9.93;4.38;;;;;;;6.97;100.00;101077.66;7394916;19;20091;-70
2022/12/25 12:38:56;;;;;;;12.45;4.25;;;;;;;6.97;100.00;101085.47;7399085;19;20007;-69
2022/12/25 12:41:32;;;;;;;14.88;5.60;;;;;;;6.96;100.00;101091.59;7395937;19;20028;-70
2022/12/25 12:44:05;;;;;;;12.32;5.32;;;;;;;6.96;100.00;101099.41;7399259;19;20038;-67
2022/12/25 12:46:39;;;;;;;14.50;4.03;;;;;;;6.96;100.00;101091.59;7395852;19;20083;-69
2022/12/25 12:49:23;;;;;;;7.65;4.00;;;;;;;6.97;100.00;101095.91;7398552;19;20014;-69
2022/12/25 12:51:52;;;;;;;10.13;4.22;;;;;;;6.98;100.00;101092.44;7396462;19;20014;-69
2022/12/25 12:54:23;;;;;;;14.95;3.95;;;;;;;7.01;100.00;101088.97;7398307;19;20015;-68
2022/12/25 12:57:03;;;;;;;10.55;4.80;;;;;;;7.03;100.00;101078.50;7396296;19;20423;-69
2022/12/25 12:59:42;;;;;;;11.32;5.78;;;;;;;7.04;100.00;101073.31;7398066;19;20018;-69
2022/12/25 13:02:29;;;;;;;13.40;5.95;;;;;;;7.04;100.00;101065.50;7398192;19;20015;-69
2022/12/25 13:05:05;;;;;;;16.00;6.95;;;;;;;7.08;100.00;101071.56;7397121;19;20017;-69
2022/12/25 13:07:46;;;;;;;14.45;7.22;;;;;;;7.08;100.00;101063.75;7398183;19;20425;-69
2022/12/25 13:10:24;;;;;;;11.27;5.63;;;;;;;7.11;100.00;101098.50;7396040;19;20083;-70
2022/12/25 13:12:56;;;;;;;16.65;6.22;;;;;;;7.12;100.00;101097.63;7397369;19;20021;-70
2022/12/25 13:15:28;;;;;;;11.38;5.93;;;;;;;7.14;100.00;101088.06;7396289;19;20073;-69